sensor_id;sensor_type;location;lat;lon;timestamp;P1;durP1;ratioP1;P2;durP2;ratioP2
81211;SDS011;70686;52.494;13.420;2023-09-08T00:02:02;10.65;;;9.07;;
81211;SDS011;70686;52.494;13.420;2023-09-08T00:04:28;13.57;;;9.20;;
81211;SDS011;70686;52.494;13.420;2023-09-08T00:06:54;12.77;;;9.13;;
81211;SDS011;70686;52.494;13.420;2023-09-08T00:09:19;11.15;;;9.48;;
81211;SDS011;70686;52.494;13.420;2023-09-08T00:11:45;13.10;;;9.88;;
81211;SDS011;70686;52.494;13.420;2023-09-08T00:14:11;12.48;;;9.45;;
81211;SDS011;70686;52.494;13.420;2023-09-08T00:16:36;13.10;;;10.30;;
81211;SDS011;70686;52.494;13.420;2023-09-08T00:19:04;12.07;;;9.50;;
81211;SDS011;70686;52.494;13.420;2023-09-08T00:21:29;13.35;;;9.52;;
81211;SDS011;70686;52.494;13.420;2023-09-08T00:23:55;14.18;;;9.60;;
81211;SDS011;70686;52.494;13.420;2023-09-08T00:26:21;13.30;;;9.90;;
81211;SDS011;70686;52.494;13.420;2023-09-08T00:28:47;12.30;;;9.32;;
81211;SDS011;70686;52.494;13.420;2023-09-08T00:31:13;13.18;;;9.45;;
81211;SDS011;70686;52.494;13.420;2023-09-08T00:33:39;12.05;;;9.50;;
81211;SDS011;70686;52.494;13.420;2023-09-08T00:36:07;12.70;;;9.30;;
81211;SDS011;70686;52.494;13.420;2023-09-08T00:38:33;12.80;;;9.57;;
81211;SDS011;70686;52.494;13.420;2023-09-08T00:40:58;13.55;;;10.07;;
81211;SDS011;70686;52.494;13.420;2023-09-08T00:43:25;14.27;;;10.93;;
81211;SDS011;70686;52.494;13.420;2023-09-08T00:45:51;15.93;;;9.75;;
81211;SDS011;70686;52.494;13.420;2023-09-08T00:48:18;13.07;;;9.30;;
81211;SDS011;70686;52.494;13.420;2023-09-08T00:50:44;14.52;;;10.13;;
81211;SDS011;70686;52.494;13.420;2023-09-08T00:53:10;14.52;;;10.43;;
81211;SDS011;70686;52.494;13.420;2023-09-08T00:55:36;15.48;;;10.27;;
81211;SDS011;70686;52.494;13.420;2023-09-08T00:58:04;13.05;;;9.93;;
81211;SDS011;70686;52.494;13.420;2023-09-08T01:00:29;11.82;;;9.95;;
81211;SDS011;70686;52.494;13.420;2023-09-08T01:02:57;14.10;;;9.68;;
81211;SDS011;70686;52.494;13.420;2023-09-08T01:05:23;12.88;;;9.68;;
81211;SDS011;70686;52.494;13.420;2023-09-08T01:07:49;12.88;;;9.73;;
81211;SDS011;70686;52.494;13.420;2023-09-08T01:10:17;12.82;;;9.82;;
81211;SDS011;70686;52.494;13.420;2023-09-08T01:12:42;12.68;;;9.55;;
81211;SDS011;70686;52.494;13.420;2023-09-08T01:15:08;13.85;;;9.68;;
81211;SDS011;70686;52.494;13.420;2023-09-08T01:17:34;13.82;;;10.25;;
81211;SDS011;70686;52.494;13.420;2023-09-08T01:20:01;14.32;;;10.15;;
81211;SDS011;70686;52.494;13.420;2023-09-08T01:25:28;15.55;;;9.88;;
81211;SDS011;70686;52.494;13.420;2023-09-08T01:27:55;13.50;;;9.77;;
81211;SDS011;70686;52.494;13.420;2023-09-08T01:30:24;15.57;;;10.40;;
81211;SDS011;70686;52.494;13.420;2023-09-08T01:32:52;13.40;;;10.15;;
81211;SDS011;70686;52.494;13.420;2023-09-08T01:35:19;15.00;;;10.57;;
81211;SDS011;70686;52.494;13.420;2023-09-08T01:37:45;15.65;;;9.50;;
81211;SDS011;70686;52.494;13.420;2023-09-08T01:40:12;14.65;;;10.00;;
81211;SDS011;70686;52.494;13.420;2023-09-08T01:42:38;14.43;;;9.30;;
81211;SDS011;70686;52.494;13.420;2023-09-08T01:45:04;14.20;;;10.00;;
81211;SDS011;70686;52.494;13.420;2023-09-08T01:47:31;13.07;;;9.57;;
81211;SDS011;70686;52.494;13.420;2023-09-08T01:49:57;13.85;;;9.73;;
81211;SDS011;70686;52.494;13.420;2023-09-08T01:52:23;13.88;;;10.35;;
81211;SDS011;70686;52.494;13.420;2023-09-08T01:54:49;15.20;;;10.30;;
81211;SDS011;70686;52.494;13.420;2023-09-08T01:57:15;13.45;;;9.75;;
81211;SDS011;70686;52.494;13.420;2023-09-08T01:59:40;13.23;;;10.40;;
81211;SDS011;70686;52.494;13.420;2023-09-08T02:02:06;13.35;;;10.45;;
81211;SDS011;70686;52.494;13.420;2023-09-08T02:04:32;12.93;;;10.10;;
81211;SDS011;70686;52.494;13.420;2023-09-08T02:06:58;13.98;;;10.07;;
81211;SDS011;70686;52.494;13.420;2023-09-08T02:09:34;15.05;;;10.52;;
81211;SDS011;70686;52.494;13.420;2023-09-08T02:12:01;15.43;;;10.93;;
81211;SDS011;70686;52.494;13.420;2023-09-08T02:14:27;14.38;;;9.85;;
81211;SDS011;70686;52.494;13.420;2023-09-08T02:16:54;14.07;;;10.52;;
81211;SDS011;70686;52.494;13.420;2023-09-08T02:19:20;14.68;;;10.35;;
81211;SDS011;70686;52.494;13.420;2023-09-08T02:21:45;15.05;;;11.02;;
81211;SDS011;70686;52.494;13.420;2023-09-08T02:24:11;15.10;;;10.48;;
81211;SDS011;70686;52.494;13.420;2023-09-08T02:26:40;13.63;;;9.93;;
81211;SDS011;70686;52.494;13.420;2023-09-08T02:29:06;14.32;;;10.73;;
81211;SDS011;70686;52.494;13.420;2023-09-08T02:31:32;14.23;;;10.50;;
81211;SDS011;70686;52.494;13.420;2023-09-08T02:33:58;13.57;;;10.23;;
81211;SDS011;70686;52.494;13.420;2023-09-08T02:36:24;14.80;;;10.75;;
81211;SDS011;70686;52.494;13.420;2023-09-08T02:38:54;13.13;;;10.23;;
81211;SDS011;70686;52.494;13.420;2023-09-08T02:41:20;15.07;;;10.60;;
81211;SDS011;70686;52.494;13.420;2023-09-08T02:43:46;14.05;;;10.38;;
81211;SDS011;70686;52.494;13.420;2023-09-08T02:46:12;12.57;;;9.77;;
81211;SDS011;70686;52.494;13.420;2023-09-08T02:48:38;13.85;;;10.73;;
81211;SDS011;70686;52.494;13.420;2023-09-08T02:51:04;14.20;;;10.88;;
81211;SDS011;70686;52.494;13.420;2023-09-08T02:53:30;13.52;;;10.85;;
81211;SDS011;70686;52.494;13.420;2023-09-08T02:56:04;16.13;;;11.02;;
81211;SDS011;70686;52.494;13.420;2023-09-08T02:58:54;12.57;;;10.55;;
81211;SDS011;70686;52.494;13.420;2023-09-08T03:01:25;14.20;;;10.32;;
81211;SDS011;70686;52.494;13.420;2023-09-08T03:04:12;13.20;;;10.52;;
81211;SDS011;70686;52.494;13.420;2023-09-08T03:06:38;14.73;;;10.45;;
81211;SDS011;70686;52.494;13.420;2023-09-08T03:09:03;14.55;;;10.90;;
81211;SDS011;70686;52.494;13.420;2023-09-08T03:11:29;15.05;;;11.32;;
81211;SDS011;70686;52.494;13.420;2023-09-08T03:13:55;18.08;;;10.55;;
81211;SDS011;70686;52.494;13.420;2023-09-08T03:16:20;15.18;;;11.30;;
81211;SDS011;70686;52.494;13.420;2023-09-08T03:18:49;14.20;;;11.45;;
81211;SDS011;70686;52.494;13.420;2023-09-08T03:21:15;14.10;;;11.05;;
81211;SDS011;70686;52.494;13.420;2023-09-08T03:23:42;13.20;;;11.38;;
81211;SDS011;70686;52.494;13.420;2023-09-08T03:26:10;15.15;;;10.85;;
81211;SDS011;70686;52.494;13.420;2023-09-08T03:28:36;16.05;;;11.18;;
81211;SDS011;70686;52.494;13.420;2023-09-08T03:31:03;15.13;;;11.75;;
81211;SDS011;70686;52.494;13.420;2023-09-08T03:33:30;16.33;;;12.10;;
81211;SDS011;70686;52.494;13.420;2023-09-08T03:35:56;13.23;;;10.93;;
81211;SDS011;70686;52.494;13.420;2023-09-08T03:38:22;15.00;;;11.05;;
81211;SDS011;70686;52.494;13.420;2023-09-08T03:40:48;14.70;;;12.00;;
81211;SDS011;70686;52.494;13.420;2023-09-08T03:43:14;16.95;;;12.40;;
81211;SDS011;70686;52.494;13.420;2023-09-08T03:45:39;15.38;;;11.18;;
81211;SDS011;70686;52.494;13.420;2023-09-08T03:48:06;13.25;;;11.23;;
81211;SDS011;70686;52.494;13.420;2023-09-08T03:50:32;15.52;;;10.90;;
81211;SDS011;70686;52.494;13.420;2023-09-08T03:52:58;17.25;;;12.32;;
81211;SDS011;70686;52.494;13.420;2023-09-08T03:55:23;16.38;;;11.35;;
81211;SDS011;70686;52.494;13.420;2023-09-08T03:57:49;15.50;;;11.30;;
81211;SDS011;70686;52.494;13.420;2023-09-08T04:00:15;15.27;;;11.32;;
81211;SDS011;70686;52.494;13.420;2023-09-08T04:02:46;14.85;;;11.57;;
81211;SDS011;70686;52.494;13.420;2023-09-08T04:08:45;15.93;;;11.40;;
81211;SDS011;70686;52.494;13.420;2023-09-08T04:11:56;15.88;;;12.15;;
81211;SDS011;70686;52.494;13.420;2023-09-08T04:14:44;16.30;;;12.32;;
81211;SDS011;70686;52.494;13.420;2023-09-08T04:17:25;15.80;;;11.57;;
81211;SDS011;70686;52.494;13.420;2023-09-08T04:26:51;17.45;;;12.15;;
81211;SDS011;70686;52.494;13.420;2023-09-08T04:36:33;14.30;;;11.27;;
81211;SDS011;70686;52.494;13.420;2023-09-08T04:46:03;15.82;;;11.63;;
81211;SDS011;70686;52.494;13.420;2023-09-08T04:49:09;17.23;;;12.25;;
81211;SDS011;70686;52.494;13.420;2023-09-08T04:51:41;18.20;;;12.25;;
81211;SDS011;70686;52.494;13.420;2023-09-08T04:54:06;16.33;;;12.40;;
81211;SDS011;70686;52.494;13.420;2023-09-08T04:56:32;18.58;;;12.40;;
81211;SDS011;70686;52.494;13.420;2023-09-08T04:58:57;18.65;;;11.77;;
81211;SDS011;70686;52.494;13.420;2023-09-08T05:01:26;16.42;;;12.63;;
81211;SDS011;70686;52.494;13.420;2023-09-08T05:04:14;18.35;;;12.55;;
81211;SDS011;70686;52.494;13.420;2023-09-08T05:06:39;16.10;;;12.18;;
81211;SDS011;70686;52.494;13.420;2023-09-08T05:09:05;18.17;;;12.60;;
81211;SDS011;70686;52.494;13.420;2023-09-08T05:11:32;16.30;;;12.25;;
81211;SDS011;70686;52.494;13.420;2023-09-08T05:13:57;15.32;;;11.77;;
81211;SDS011;70686;52.494;13.420;2023-09-08T05:16:26;18.45;;;12.50;;
81211;SDS011;70686;52.494;13.420;2023-09-08T05:19:10;17.60;;;12.75;;
81211;SDS011;70686;52.494;13.420;2023-09-08T05:21:36;17.33;;;12.55;;
81211;SDS011;70686;52.494;13.420;2023-09-08T05:24:02;33.05;;;18.67;;
81211;SDS011;70686;52.494;13.420;2023-09-08T05:26:28;18.10;;;13.55;;
81211;SDS011;70686;52.494;13.420;2023-09-08T05:28:54;15.15;;;11.75;;
81211;SDS011;70686;52.494;13.420;2023-09-08T05:31:22;17.13;;;12.25;;
81211;SDS011;70686;52.494;13.420;2023-09-08T05:37:03;17.25;;;11.98;;
81211;SDS011;70686;52.494;13.420;2023-09-08T05:52:42;16.48;;;12.30;;
81211;SDS011;70686;52.494;13.420;2023-09-08T05:55:09;21.40;;;13.60;;
81211;SDS011;70686;52.494;13.420;2023-09-08T05:57:34;17.42;;;12.27;;
81211;SDS011;70686;52.494;13.420;2023-09-08T06:00:02;17.42;;;11.52;;
81211;SDS011;70686;52.494;13.420;2023-09-08T06:02:28;19.85;;;12.23;;
81211;SDS011;70686;52.494;13.420;2023-09-08T06:04:54;16.58;;;12.55;;
81211;SDS011;70686;52.494;13.420;2023-09-08T06:07:21;18.73;;;13.05;;
81211;SDS011;70686;52.494;13.420;2023-09-08T06:09:47;18.45;;;12.70;;
81211;SDS011;70686;52.494;13.420;2023-09-08T06:12:13;15.38;;;12.25;;
81211;SDS011;70686;52.494;13.420;2023-09-08T06:14:38;16.65;;;12.23;;
81211;SDS011;70686;52.494;13.420;2023-09-08T06:17:04;18.75;;;12.50;;
81211;SDS011;70686;52.494;13.420;2023-09-08T06:19:30;17.67;;;12.45;;
81211;SDS011;70686;52.494;13.420;2023-09-08T06:21:56;18.25;;;12.68;;
81211;SDS011;70686;52.494;13.420;2023-09-08T06:24:21;18.67;;;12.20;;
81211;SDS011;70686;52.494;13.420;2023-09-08T06:26:47;16.30;;;12.52;;
81211;SDS011;70686;52.494;13.420;2023-09-08T06:29:14;18.30;;;12.07;;
81211;SDS011;70686;52.494;13.420;2023-09-08T06:31:40;18.60;;;11.38;;
81211;SDS011;70686;52.494;13.420;2023-09-08T06:34:06;15.65;;;11.65;;
81211;SDS011;70686;52.494;13.420;2023-09-08T06:36:32;17.08;;;11.93;;
81211;SDS011;70686;52.494;13.420;2023-09-08T06:38:57;17.52;;;11.40;;
81211;SDS011;70686;52.494;13.420;2023-09-08T06:41:23;20.90;;;12.15;;
81211;SDS011;70686;52.494;13.420;2023-09-08T06:43:55;15.48;;;11.18;;
81211;SDS011;70686;52.494;13.420;2023-09-08T06:46:20;15.60;;;12.07;;
81211;SDS011;70686;52.494;13.420;2023-09-08T06:48:46;17.38;;;11.73;;
81211;SDS011;70686;52.494;13.420;2023-09-08T06:51:12;17.13;;;11.52;;
81211;SDS011;70686;52.494;13.420;2023-09-08T06:53:38;17.92;;;11.43;;
81211;SDS011;70686;52.494;13.420;2023-09-08T06:56:04;16.15;;;11.57;;
81211;SDS011;70686;52.494;13.420;2023-09-08T06:58:29;17.27;;;11.77;;
81211;SDS011;70686;52.494;13.420;2023-09-08T07:00:55;13.27;;;11.48;;
81211;SDS011;70686;52.494;13.420;2023-09-08T07:03:21;17.25;;;11.75;;
81211;SDS011;70686;52.494;13.420;2023-09-08T07:05:48;15.82;;;10.77;;
81211;SDS011;70686;52.494;13.420;2023-09-08T07:08:15;27.85;;;14.63;;
81211;SDS011;70686;52.494;13.420;2023-09-08T07:10:42;18.88;;;12.50;;
81211;SDS011;70686;52.494;13.420;2023-09-08T07:13:09;15.45;;;11.15;;
81211;SDS011;70686;52.494;13.420;2023-09-08T07:15:35;16.58;;;10.75;;
81211;SDS011;70686;52.494;13.420;2023-09-08T07:18:01;17.17;;;11.50;;
81211;SDS011;70686;52.494;13.420;2023-09-08T07:20:27;20.33;;;12.40;;
81211;SDS011;70686;52.494;13.420;2023-09-08T07:22:53;15.98;;;10.70;;
81211;SDS011;70686;52.494;13.420;2023-09-08T07:25:19;15.25;;;10.32;;
81211;SDS011;70686;52.494;13.420;2023-09-08T07:27:45;16.02;;;10.27;;
81211;SDS011;70686;52.494;13.420;2023-09-08T07:30:11;14.82;;;10.18;;
81211;SDS011;70686;52.494;13.420;2023-09-08T07:32:38;14.32;;;10.25;;
81211;SDS011;70686;52.494;13.420;2023-09-08T07:35:04;14.32;;;10.50;;
81211;SDS011;70686;52.494;13.420;2023-09-08T07:37:30;15.30;;;10.48;;
81211;SDS011;70686;52.494;13.420;2023-09-08T07:39:56;13.02;;;9.68;;
81211;SDS011;70686;52.494;13.420;2023-09-08T07:42:23;18.92;;;10.65;;
81211;SDS011;70686;52.494;13.420;2023-09-08T07:44:50;15.13;;;11.02;;
81211;SDS011;70686;52.494;13.420;2023-09-08T07:47:17;13.77;;;9.52;;
81211;SDS011;70686;52.494;13.420;2023-09-08T07:49:45;12.98;;;10.25;;
81211;SDS011;70686;52.494;13.420;2023-09-08T07:52:22;14.95;;;10.50;;
81211;SDS011;70686;52.494;13.420;2023-09-08T07:54:52;12.00;;;9.60;;
81211;SDS011;70686;52.494;13.420;2023-09-08T07:57:17;12.88;;;10.07;;
81211;SDS011;70686;52.494;13.420;2023-09-08T07:59:43;11.63;;;9.60;;
81211;SDS011;70686;52.494;13.420;2023-09-08T08:02:09;14.70;;;9.77;;
81211;SDS011;70686;52.494;13.420;2023-09-08T08:04:36;12.55;;;9.88;;
81211;SDS011;70686;52.494;13.420;2023-09-08T08:07:04;13.40;;;10.32;;
81211;SDS011;70686;52.494;13.420;2023-09-08T08:09:30;13.05;;;9.85;;
81211;SDS011;70686;52.494;13.420;2023-09-08T08:11:56;12.40;;;9.18;;
81211;SDS011;70686;52.494;13.420;2023-09-08T08:14:22;14.10;;;9.73;;
81211;SDS011;70686;52.494;13.420;2023-09-08T08:16:48;15.90;;;9.75;;
81211;SDS011;70686;52.494;13.420;2023-09-08T08:19:13;13.15;;;9.38;;
81211;SDS011;70686;52.494;13.420;2023-09-08T08:21:45;12.65;;;9.60;;
81211;SDS011;70686;52.494;13.420;2023-09-08T08:24:11;14.73;;;9.40;;
81211;SDS011;70686;52.494;13.420;2023-09-08T08:26:37;12.43;;;9.18;;
81211;SDS011;70686;52.494;13.420;2023-09-08T08:29:03;13.93;;;9.73;;
81211;SDS011;70686;52.494;13.420;2023-09-08T08:31:32;12.52;;;9.45;;
81211;SDS011;70686;52.494;13.420;2023-09-08T08:33:58;13.63;;;10.20;;
81211;SDS011;70686;52.494;13.420;2023-09-08T08:36:24;12.27;;;9.75;;
81211;SDS011;70686;52.494;13.420;2023-09-08T08:38:49;14.15;;;10.15;;
81211;SDS011;70686;52.494;13.420;2023-09-08T08:41:15;11.80;;;9.10;;
81211;SDS011;70686;52.494;13.420;2023-09-08T08:43:41;13.30;;;9.25;;
81211;SDS011;70686;52.494;13.420;2023-09-08T08:46:09;12.10;;;9.55;;
81211;SDS011;70686;52.494;13.420;2023-09-08T08:48:37;14.32;;;9.82;;
81211;SDS011;70686;52.494;13.420;2023-09-08T08:51:05;14.13;;;9.77;;
81211;SDS011;70686;52.494;13.420;2023-09-08T08:53:32;16.63;;;9.98;;
81211;SDS011;70686;52.494;13.420;2023-09-08T08:56:00;13.00;;;9.45;;
81211;SDS011;70686;52.494;13.420;2023-09-08T08:58:27;13.32;;;8.82;;
81211;SDS011;70686;52.494;13.420;2023-09-08T09:00:56;13.27;;;9.57;;
81211;SDS011;70686;52.494;13.420;2023-09-08T09:03:28;12.63;;;9.63;;
81211;SDS011;70686;52.494;13.420;2023-09-08T09:05:56;13.07;;;10.07;;
81211;SDS011;70686;52.494;13.420;2023-09-08T09:08:22;14.70;;;10.10;;
81211;SDS011;70686;52.494;13.420;2023-09-08T09:10:49;14.02;;;8.27;;
81211;SDS011;70686;52.494;13.420;2023-09-08T09:13:15;13.48;;;8.50;;
81211;SDS011;70686;52.494;13.420;2023-09-08T09:15:43;12.07;;;9.52;;
81211;SDS011;70686;52.494;13.420;2023-09-08T09:18:10;13.00;;;9.23;;
81211;SDS011;70686;52.494;13.420;2023-09-08T09:20:36;12.80;;;10.05;;
81211;SDS011;70686;52.494;13.420;2023-09-08T09:23:02;12.77;;;9.45;;
81211;SDS011;70686;52.494;13.420;2023-09-08T09:25:29;12.52;;;9.02;;
81211;SDS011;70686;52.494;13.420;2023-09-08T09:27:56;13.23;;;8.82;;
81211;SDS011;70686;52.494;13.420;2023-09-08T09:30:24;11.93;;;9.57;;
81211;SDS011;70686;52.494;13.420;2023-09-08T09:33:12;10.65;;;9.25;;
81211;SDS011;70686;52.494;13.420;2023-09-08T09:35:43;15.00;;;9.98;;
81211;SDS011;70686;52.494;13.420;2023-09-08T09:38:10;12.88;;;9.35;;
81211;SDS011;70686;52.494;13.420;2023-09-08T09:40:36;13.02;;;8.70;;
81211;SDS011;70686;52.494;13.420;2023-09-08T09:43:03;10.43;;;8.43;;
81211;SDS011;70686;52.494;13.420;2023-09-08T09:45:32;10.52;;;7.90;;
81211;SDS011;70686;52.494;13.420;2023-09-08T09:47:58;11.38;;;8.10;;
81211;SDS011;70686;52.494;13.420;2023-09-08T09:50:41;11.40;;;8.60;;
81211;SDS011;70686;52.494;13.420;2023-09-08T09:53:12;12.60;;;9.88;;
81211;SDS011;70686;52.494;13.420;2023-09-08T09:55:43;11.95;;;8.88;;
81211;SDS011;70686;52.494;13.420;2023-09-08T09:58:09;13.20;;;10.13;;
81211;SDS011;70686;52.494;13.420;2023-09-08T10:00:39;11.52;;;8.38;;
81211;SDS011;70686;52.494;13.420;2023-09-08T10:03:12;11.93;;;9.20;;
81211;SDS011;70686;52.494;13.420;2023-09-08T10:05:39;14.40;;;9.05;;
81211;SDS011;70686;52.494;13.420;2023-09-08T10:08:04;13.48;;;8.52;;
81211;SDS011;70686;52.494;13.420;2023-09-08T10:10:31;14.32;;;9.70;;
81211;SDS011;70686;52.494;13.420;2023-09-08T10:13:01;14.27;;;9.48;;
81211;SDS011;70686;52.494;13.420;2023-09-08T10:15:30;11.90;;;9.65;;
81211;SDS011;70686;52.494;13.420;2023-09-08T10:17:56;10.10;;;8.20;;
81211;SDS011;70686;52.494;13.420;2023-09-08T10:20:24;12.50;;;8.77;;
81211;SDS011;70686;52.494;13.420;2023-09-08T10:23:06;12.45;;;8.63;;
81211;SDS011;70686;52.494;13.420;2023-09-08T10:25:43;9.68;;;7.53;;
81211;SDS011;70686;52.494;13.420;2023-09-08T10:28:27;12.50;;;8.45;;
81211;SDS011;70686;52.494;13.420;2023-09-08T10:31:09;13.50;;;9.00;;
81211;SDS011;70686;52.494;13.420;2023-09-08T10:33:43;12.13;;;8.70;;
81211;SDS011;70686;52.494;13.420;2023-09-08T10:36:38;11.85;;;7.90;;
81211;SDS011;70686;52.494;13.420;2023-09-08T10:39:30;9.18;;;7.35;;
81211;SDS011;70686;52.494;13.420;2023-09-08T10:50:29;13.18;;;8.70;;
81211;SDS011;70686;52.494;13.420;2023-09-08T10:53:18;10.45;;;7.75;;
81211;SDS011;70686;52.494;13.420;2023-09-08T10:55:48;9.43;;;7.40;;
81211;SDS011;70686;52.494;13.420;2023-09-08T10:58:17;10.68;;;7.80;;
81211;SDS011;70686;52.494;13.420;2023-09-08T11:00:51;10.23;;;7.68;;
81211;SDS011;70686;52.494;13.420;2023-09-08T11:06:18;12.75;;;8.73;;
81211;SDS011;70686;52.494;13.420;2023-09-08T11:09:09;11.90;;;8.75;;
81211;SDS011;70686;52.494;13.420;2023-09-08T11:11:40;12.38;;;8.30;;
81211;SDS011;70686;52.494;13.420;2023-09-08T11:14:22;9.30;;;7.60;;
81211;SDS011;70686;52.494;13.420;2023-09-08T11:16:50;16.13;;;9.00;;
81211;SDS011;70686;52.494;13.420;2023-09-08T11:19:16;9.90;;;8.07;;
81211;SDS011;70686;52.494;13.420;2023-09-08T11:21:42;8.88;;;7.35;;
81211;SDS011;70686;52.494;13.420;2023-09-08T11:24:08;9.98;;;7.60;;
81211;SDS011;70686;52.494;13.420;2023-09-08T11:26:35;10.63;;;7.85;;
81211;SDS011;70686;52.494;13.420;2023-09-08T11:29:02;10.52;;;7.95;;
81211;SDS011;70686;52.494;13.420;2023-09-08T11:31:28;10.18;;;7.85;;
81211;SDS011;70686;52.494;13.420;2023-09-08T11:33:54;10.32;;;7.97;;
81211;SDS011;70686;52.494;13.420;2023-09-08T11:36:20;10.20;;;7.90;;
81211;SDS011;70686;52.494;13.420;2023-09-08T11:38:46;10.13;;;7.88;;
81211;SDS011;70686;52.494;13.420;2023-09-08T11:41:11;9.23;;;7.28;;
81211;SDS011;70686;52.494;13.420;2023-09-08T11:43:38;9.55;;;7.40;;
81211;SDS011;70686;52.494;13.420;2023-09-08T11:46:04;9.77;;;7.25;;
81211;SDS011;70686;52.494;13.420;2023-09-08T11:48:31;8.63;;;6.55;;
81211;SDS011;70686;52.494;13.420;2023-09-08T11:50:57;9.85;;;6.97;;
81211;SDS011;70686;52.494;13.420;2023-09-08T11:53:23;10.02;;;7.20;;
81211;SDS011;70686;52.494;13.420;2023-09-08T11:55:50;11.88;;;7.70;;
81211;SDS011;70686;52.494;13.420;2023-09-08T11:58:16;11.57;;;7.45;;
81211;SDS011;70686;52.494;13.420;2023-09-08T12:00:44;9.23;;;7.20;;
81211;SDS011;70686;52.494;13.420;2023-09-08T12:03:14;9.35;;;7.00;;
81211;SDS011;70686;52.494;13.420;2023-09-08T12:05:41;11.07;;;7.30;;
81211;SDS011;70686;52.494;13.420;2023-09-08T12:08:08;10.32;;;7.55;;
81211;SDS011;70686;52.494;13.420;2023-09-08T12:10:37;11.07;;;7.82;;
81211;SDS011;70686;52.494;13.420;2023-09-08T12:13:04;9.43;;;7.32;;
81211;SDS011;70686;52.494;13.420;2023-09-08T12:15:36;9.45;;;7.13;;
81211;SDS011;70686;52.494;13.420;2023-09-08T12:18:07;10.02;;;7.60;;
81211;SDS011;70686;52.494;13.420;2023-09-08T12:20:35;10.63;;;7.47;;
81211;SDS011;70686;52.494;13.420;2023-09-08T12:23:02;10.18;;;7.38;;
81211;SDS011;70686;52.494;13.420;2023-09-08T12:25:29;8.95;;;7.13;;
81211;SDS011;70686;52.494;13.420;2023-09-08T12:27:59;8.82;;;6.68;;
81211;SDS011;70686;52.494;13.420;2023-09-08T12:30:26;7.43;;;6.40;;
81211;SDS011;70686;52.494;13.420;2023-09-08T12:32:57;11.30;;;6.90;;
81211;SDS011;70686;52.494;13.420;2023-09-08T12:35:24;8.70;;;7.50;;
81211;SDS011;70686;52.494;13.420;2023-09-08T12:37:56;10.32;;;7.00;;
81211;SDS011;70686;52.494;13.420;2023-09-08T12:40:27;8.23;;;6.65;;
81211;SDS011;70686;52.494;13.420;2023-09-08T12:42:54;12.25;;;9.50;;
81211;SDS011;70686;52.494;13.420;2023-09-08T12:45:21;8.98;;;6.72;;
81211;SDS011;70686;52.494;13.420;2023-09-08T12:47:50;8.55;;;7.05;;
81211;SDS011;70686;52.494;13.420;2023-09-08T12:50:15;9.88;;;7.55;;
81211;SDS011;70686;52.494;13.420;2023-09-08T12:52:41;10.52;;;7.38;;
81211;SDS011;70686;52.494;13.420;2023-09-08T12:55:07;10.32;;;7.18;;
81211;SDS011;70686;52.494;13.420;2023-09-08T12:57:33;10.77;;;7.45;;
81211;SDS011;70686;52.494;13.420;2023-09-08T12:59:59;8.40;;;6.93;;
81211;SDS011;70686;52.494;13.420;2023-09-08T13:02:25;10.93;;;7.18;;
81211;SDS011;70686;52.494;13.420;2023-09-08T13:04:51;9.52;;;7.28;;
81211;SDS011;70686;52.494;13.420;2023-09-08T13:07:16;9.73;;;7.03;;
81211;SDS011;70686;52.494;13.420;2023-09-08T13:09:43;9.73;;;6.97;;
81211;SDS011;70686;52.494;13.420;2023-09-08T13:12:09;10.35;;;7.55;;
81211;SDS011;70686;52.494;13.420;2023-09-08T13:14:35;9.25;;;7.00;;
81211;SDS011;70686;52.494;13.420;2023-09-08T13:17:01;11.00;;;7.60;;
81211;SDS011;70686;52.494;13.420;2023-09-08T13:19:28;10.15;;;6.68;;
81211;SDS011;70686;52.494;13.420;2023-09-08T13:21:54;8.55;;;6.75;;
81211;SDS011;70686;52.494;13.420;2023-09-08T13:24:20;10.50;;;7.38;;
81211;SDS011;70686;52.494;13.420;2023-09-08T13:26:47;8.88;;;6.70;;
81211;SDS011;70686;52.494;13.420;2023-09-08T13:29:13;9.65;;;7.30;;
81211;SDS011;70686;52.494;13.420;2023-09-08T13:31:39;8.77;;;7.68;;
81211;SDS011;70686;52.494;13.420;2023-09-08T13:34:05;8.93;;;7.65;;
81211;SDS011;70686;52.494;13.420;2023-09-08T13:36:33;9.15;;;6.95;;
81211;SDS011;70686;52.494;13.420;2023-09-08T13:38:59;8.70;;;6.80;;
81211;SDS011;70686;52.494;13.420;2023-09-08T13:41:29;8.05;;;6.80;;
81211;SDS011;70686;52.494;13.420;2023-09-08T13:44:20;8.88;;;7.25;;
81211;SDS011;70686;52.494;13.420;2023-09-08T13:46:48;10.25;;;6.03;;
81211;SDS011;70686;52.494;13.420;2023-09-08T13:49:19;6.50;;;5.60;;
81211;SDS011;70686;52.494;13.420;2023-09-08T13:51:46;7.07;;;6.15;;
81211;SDS011;70686;52.494;13.420;2023-09-08T13:54:12;9.75;;;5.88;;
81211;SDS011;70686;52.494;13.420;2023-09-08T13:56:38;8.13;;;6.80;;
81211;SDS011;70686;52.494;13.420;2023-09-08T13:59:10;9.00;;;6.38;;
81211;SDS011;70686;52.494;13.420;2023-09-08T14:01:45;8.93;;;6.57;;
81211;SDS011;70686;52.494;13.420;2023-09-08T14:04:11;7.32;;;5.60;;
81211;SDS011;70686;52.494;13.420;2023-09-08T14:06:37;6.80;;;5.78;;
81211;SDS011;70686;52.494;13.420;2023-09-08T14:09:02;8.02;;;5.72;;
81211;SDS011;70686;52.494;13.420;2023-09-08T14:11:29;6.88;;;5.80;;
81211;SDS011;70686;52.494;13.420;2023-09-08T14:13:54;11.75;;;6.75;;
81211;SDS011;70686;52.494;13.420;2023-09-08T14:16:20;10.00;;;6.97;;
81211;SDS011;70686;52.494;13.420;2023-09-08T14:18:45;7.78;;;6.63;;
81211;SDS011;70686;52.494;13.420;2023-09-08T14:21:11;8.45;;;6.68;;
81211;SDS011;70686;52.494;13.420;2023-09-08T14:23:37;9.48;;;7.40;;
81211;SDS011;70686;52.494;13.420;2023-09-08T14:26:03;9.68;;;7.05;;
81211;SDS011;70686;52.494;13.420;2023-09-08T14:28:29;8.25;;;5.82;;
81211;SDS011;70686;52.494;13.420;2023-09-08T14:30:57;8.25;;;6.18;;
81211;SDS011;70686;52.494;13.420;2023-09-08T14:33:23;8.63;;;5.82;;
81211;SDS011;70686;52.494;13.420;2023-09-08T14:35:49;6.60;;;5.28;;
81211;SDS011;70686;52.494;13.420;2023-09-08T14:38:19;10.02;;;6.90;;
81211;SDS011;70686;52.494;13.420;2023-09-08T14:40:57;8.73;;;6.93;;
81211;SDS011;70686;52.494;13.420;2023-09-08T14:43:25;11.55;;;9.13;;
81211;SDS011;70686;52.494;13.420;2023-09-08T14:45:51;12.02;;;7.15;;
81211;SDS011;70686;52.494;13.420;2023-09-08T14:48:17;7.90;;;6.57;;
81211;SDS011;70686;52.494;13.420;2023-09-08T14:50:43;9.57;;;6.85;;
81211;SDS011;70686;52.494;13.420;2023-09-08T14:53:09;11.15;;;7.75;;
81211;SDS011;70686;52.494;13.420;2023-09-08T14:55:35;10.75;;;6.88;;
81211;SDS011;70686;52.494;13.420;2023-09-08T14:58:00;8.05;;;6.43;;
81211;SDS011;70686;52.494;13.420;2023-09-08T15:00:26;7.55;;;5.80;;
81211;SDS011;70686;52.494;13.420;2023-09-08T15:02:52;10.68;;;7.35;;
81211;SDS011;70686;52.494;13.420;2023-09-08T15:05:18;9.02;;;7.47;;
81211;SDS011;70686;52.494;13.420;2023-09-08T15:07:44;9.27;;;6.78;;
81211;SDS011;70686;52.494;13.420;2023-09-08T15:10:10;10.55;;;8.18;;
81211;SDS011;70686;52.494;13.420;2023-09-08T15:12:36;9.90;;;7.88;;
81211;SDS011;70686;52.494;13.420;2023-09-08T15:15:01;7.93;;;6.45;;
81211;SDS011;70686;52.494;13.420;2023-09-08T15:17:28;9.60;;;7.70;;
81211;SDS011;70686;52.494;13.420;2023-09-08T15:19:54;8.45;;;7.05;;